Pagrindinis puslapis
METAR-TAF:

METAR-TAF

Oro uostai :

Providensijos sala, Kolumbija

platuma: 13-22N, ilguma: 081-21W, Aukštis: 6 m

Dabartinis oras

Ataskaita buvo paskelbta 34 minutes, ne 13:00 UTC
Vėjas 4 kt nuo kintamojo kryptimis
Temperatūra 27°C
Drėgmė 79%
Slėgis 1017 hPa
Matomumas 10 km arba daugiau
Mažai debesys ne aukštis 1700 ft

METAR: SKPV 281300Z VRB04KT 9999 FEW017 27/23 A3002

Laikas: 08:34 (13:34 UTC)


TAF: trūkstamas

Orai ataskaitas ir orų prognozės (METAR, TAF).

turimą stotys yra geltonos ir raudonos taškus žemėlapyje.

Perkelti pele per norėdami pamatyti stoties vardą.

Tada spustelėkite, norėdami matyti oro stebėjimo ir prognozės.

Norėdami pakeisti žemėlapį: spustelėkite ant žalios mygtukų su juodo kryžiaus žemyn,; žalią mygtuką su brūkšneliu, jei norite nutolinti; arba žalių rodyklių gretimoms žemėlapius.


METAR-TAF: